Time;durP1;ratioP1;P1;durP2;ratioP2;P2;SDS_P1;SDS_P2;PMS_P1;PMS_P2;Temp;Humidity;BMP_temperature;BMP_pressure;BME280_temperature;BME280_humidity;BME280_pressure;Samples;Min_cycle;Max_cycle;Signal;HPM_P1;HPM_P2
2022/11/28 00:04:01;;;;;;;28.08;19.02;;;;;;;2.61;100.00;100284.97;10340934;28;20042;-71
2022/11/28 00:09:03;;;;;;;31.52;19.60;;;;;;;2.62;100.00;100280.63;10339057;28;20050;-71
2022/11/28 00:14:05;;;;;;;22.98;17.25;;;;;;;2.69;100.00;100272.00;10340595;28;20046;-71
2022/11/28 00:19:07;;;;;;;21.27;18.45;;;;;;;2.71;98.86;100257.31;10340368;28;20101;-71
2022/11/28 00:24:09;;;;;;;22.92;17.88;;;;;;;2.62;99.48;100247.75;10340672;28;20038;-71
2022/11/28 00:29:11;;;;;;;25.67;18.90;;;;;;;2.65;99.64;100252.06;10338448;28;20056;-71
2022/11/28 00:34:14;;;;;;;20.80;17.08;;;;;;;2.62;97.59;100239.97;10340303;28;20065;-71
2022/11/28 00:39:16;;;;;;;23.60;16.98;;;;;;;2.47;99.38;100235.56;10340943;28;20477;-72
2022/11/28 00:44:17;;;;;;;18.92;17.13;;;;;;;2.40;99.70;100243.34;10338235;28;20038;-70
2022/11/28 00:49:19;;;;;;;19.88;15.32;;;;;;;2.73;97.63;100220.09;10340119;28;20050;-70
2022/11/28 00:54:21;;;;;;;21.65;16.63;;;;;;;2.65;96.72;100215.75;10339941;28;20046;-71
2022/11/28 00:59:23;;;;;;;24.42;17.77;;;;;;;2.58;97.33;100222.66;10338478;28;20439;-72
2022/11/28 01:04:26;;;;;;;17.60;15.73;;;;;;;2.50;97.60;100219.16;10338360;28;20105;-70
2022/11/28 01:09:28;;;;;;;24.73;17.35;;;;;;;2.25;98.95;100216.44;10338315;28;20038;-73
2022/11/28 01:14:30;;;;;;;22.58;15.88;;;;;;;2.39;98.67;100206.16;10337375;28;20046;-73
2022/11/28 01:19:32;;;;;;;24.13;17.70;;;;;;;2.44;98.82;100209.63;10337858;28;20404;-74
2022/11/28 01:24:34;;;;;;;18.85;16.92;;;;;;;2.42;99.32;100203.56;10338734;28;20050;-74
2022/11/28 01:29:35;;;;;;;21.67;16.73;;;;;;;2.49;99.27;100197.53;10337705;28;20104;-74
2022/11/28 01:34:37;;;;;;;21.92;18.33;;;;;;;2.33;99.63;100189.69;10336768;28;20047;-73
2022/11/28 01:39:39;;;;;;;22.10;17.45;;;;;;;2.45;98.88;100187.16;10337122;28;20054;-74
2022/11/28 01:44:40;;;;;;;25.05;18.20;;;;;;;2.50;98.13;100177.66;10337307;28;20042;-73
2022/11/28 01:49:45;;;;;;;19.13;17.13;;;;;;;2.55;98.25;100169.88;10336868;28;20538;-74
2022/11/28 01:54:51;;;;;;;21.08;15.88;;;;;;;2.51;98.26;100179.38;10337429;28;20061;-74
2022/11/28 02:00:02;;;;;;;28.20;18.27;;;;;;;2.36;98.78;100174.13;10336630;28;20054;-74
2022/11/28 02:05:15;;;;;;;22.13;17.17;;;;;;;2.45;98.10;100158.59;10335848;28;20456;-73
2022/11/28 02:10:27;;;;;;;21.15;16.50;;;;;;;2.46;97.51;100144.75;10335883;28;20459;-73
2022/11/28 02:15:51;;;;;;;24.25;17.92;;;;;;;2.46;97.23;100144.75;10334928;28;20098;-73
2022/11/28 02:21:23;;;;;;;19.77;17.77;;;;;;;2.42;97.51;100143.03;10335673;28;20053;-74
2022/11/28 02:26:44;;;;;;;26.20;17.00;;;;;;;2.37;97.78;100142.16;10334666;28;20381;-75
2022/11/28 02:32:22;;;;;;;18.70;15.98;;;;;;;2.37;97.48;100124.84;10335618;28;20050;-74
2022/11/28 02:37:45;;;;;;;19.40;16.45;;;;;;;2.44;96.09;100125.75;10334077;28;20038;-73
2022/11/28 02:43:15;;;;;;;18.55;16.58;;;;;;;2.42;96.26;100110.16;10334596;28;20077;-74
2022/11/28 02:48:23;;;;;;;17.98;16.20;;;;;;;2.59;94.80;100104.16;10334112;28;20046;-73
2022/11/28 02:53:29;;;;;;;20.85;16.30;;;;;;;2.37;95.66;100106.69;10335363;28;20038;-73
2022/11/28 02:58:31;;;;;;;22.57;16.00;;;;;;;2.36;96.42;100099.78;10332835;28;20057;-73
2022/11/28 03:03:57;;;;;;;20.27;16.15;;;;;;;2.34;95.88;100106.66;10334458;28;20108;-73
2022/11/28 03:09:14;;;;;;;20.40;15.87;;;;;;;2.39;95.10;100096.31;10334753;28;20461;-74
2022/11/28 03:14:33;;;;;;;16.58;14.85;;;;;;;2.38;95.45;100095.44;10334586;28;20046;-73
2022/11/28 03:19:45;;;;;;;17.02;15.23;;;;;;;2.24;95.91;100089.34;10333335;28;20038;-73
2022/11/28 03:24:51;;;;;;;19.30;15.02;;;;;;;2.31;95.19;100082.47;10337931;28;20050;-75
2022/11/28 03:30:00;;;;;;;16.90;15.25;;;;;;;2.30;94.94;100084.19;10342806;28;20058;-74
2022/11/28 03:35:12;;;;;;;16.63;14.90;;;;;;;2.23;95.58;100074.66;10341446;28;20392;-73
2022/11/28 03:40:21;;;;;;;16.65;14.85;;;;;;;2.24;95.44;100064.28;10324226;28;20408;-73
2022/11/28 03:45:27;;;;;;;17.92;15.25;;;;;;;2.13;95.83;100062.56;10340384;28;20065;-74
2022/11/28 03:50:43;;;;;;;18.00;15.60;;;;;;;2.06;95.90;100068.56;10340779;28;20042;-75
2022/11/28 03:55:59;;;;;;;20.40;14.88;;;;;;;2.27;95.35;100073.81;10340728;28;20100;-74
2022/11/28 04:01:13;;;;;;;22.63;16.77;;;;;;;2.09;96.15;100061.66;10341689;28;20047;-73
2022/11/28 04:06:24;;;;;;;17.17;15.38;;;;;;;2.20;95.94;100059.94;10340682;28;20042;-73
2022/11/28 04:11:33;;;;;;;16.60;14.85;;;;;;;2.03;96.75;100065.09;10342453;28;20092;-73
2022/11/28 04:16:44;;;;;;;17.90;16.10;;;;;;;1.86;97.60;100058.09;10341777;28;20047;-74
2022/11/28 04:22:02;;;;;;;19.55;15.02;;;;;;;1.98;98.14;100055.56;10338681;28;20104;-74
2022/11/28 04:27:10;;;;;;;17.10;14.77;;;;;;;2.01;96.88;100059.03;10338809;28;20046;-74
2022/11/28 04:32:14;;;;;;;17.98;15.90;;;;;;;2.01;97.30;100058.19;10340103;28;20050;-74
2022/11/28 04:37:17;;;;;;;18.08;16.15;;;;;;;2.06;97.16;100051.28;10339279;28;20096;-74
2022/11/28 04:42:23;;;;;;;17.80;15.85;;;;;;;2.03;98.32;100048.66;10339306;28;20096;-74
2022/11/28 04:47:25;;;;;;;20.42;16.15;;;;;;;2.03;97.95;100038.28;10339926;28;20034;-73
2022/11/28 04:52:44;;;;;;;16.40;14.70;;;;;;;2.13;97.39;100039.22;10340259;28;20050;-74
2022/11/28 04:57:50;;;;;;;16.92;15.15;;;;;;;2.07;97.99;100026.22;10339220;28;20507;-74
2022/11/28 05:02:58;;;;;;;17.23;15.60;;;;;;;2.19;97.20;100028.84;10339787;28;20149;-73
2022/11/28 05:08:00;;;;;;;18.95;17.10;;;;;;;2.03;97.83;100020.16;10339204;28;20043;-74
2022/11/28 05:13:03;;;;;;;20.80;16.20;;;;;;;2.30;96.86;100032.31;10338582;28;20046;-73
2022/11/28 05:18:05;;;;;;;18.65;16.75;;;;;;;2.15;97.25;100033.16;10337711;28;20468;-73
2022/11/28 05:23:08;;;;;;;19.23;16.60;;;;;;;2.09;97.98;100022.78;10338170;28;20488;-74
2022/11/28 05:28:10;;;;;;;20.55;17.88;;;;;;;2.27;97.34;100017.63;10337715;28;20045;-73
2022/11/28 05:33:11;;;;;;;21.05;18.58;;;;;;;2.15;97.97;100014.13;10336713;28;20053;-74
2022/11/28 05:38:13;;;;;;;19.55;17.65;;;;;;;2.23;97.94;100013.28;10336083;28;20042;-73
2022/11/28 05:43:15;;;;;;;21.52;17.08;;;;;;;2.47;96.53;100009.84;10337582;28;20034;-74
2022/11/28 05:48:17;;;;;;;20.58;18.38;;;;;;;2.35;96.82;100006.41;10336796;28;20042;-73
2022/11/28 05:53:19;;;;;;;20.20;18.10;;;;;;;2.35;97.68;99999.47;10336593;28;20047;-75
2022/11/28 05:58:20;;;;;;;19.00;17.30;;;;;;;2.45;97.05;99992.56;10337649;28;20042;-74
2022/11/28 06:03:22;;;;;;;23.50;18.05;;;;;;;2.35;97.30;99996.03;10337002;28;20073;-74
2022/11/28 06:08:24;;;;;;;25.77;18.33;;;;;;;2.41;97.08;99980.44;10335856;28;20050;-75
2022/11/28 06:13:26;;;;;;;20.52;18.70;;;;;;;2.45;97.50;99977.84;10336246;28;20092;-74
2022/11/28 06:18:28;;;;;;;21.23;18.15;;;;;;;2.61;96.88;99975.25;10337222;28;20065;-73
2022/11/28 06:23:30;;;;;;;20.83;18.90;;;;;;;2.50;97.19;99976.13;10339276;28;20051;-76
2022/11/28 06:28:33;;;;;;;19.80;17.90;;;;;;;2.58;96.53;99986.50;10337693;28;20042;-73
2022/11/28 06:33:35;;;;;;;21.33;17.00;;;;;;;2.71;95.67;99977.84;10334226;28;20088;-74
2022/11/28 06:38:37;;;;;;;19.88;16.52;;;;;;;2.60;96.03;99981.31;10335660;28;20042;-76
2022/11/28 06:43:39;;;;;;;20.73;17.23;;;;;;;2.67;96.34;99976.13;10334271;28;20145;-75
2022/11/28 06:48:41;;;;;;;18.67;16.85;;;;;;;2.71;95.76;99971.78;10350365;28;20062;-74
2022/11/28 06:53:42;;;;;;;16.92;15.43;;;;;;;2.76;95.68;99972.66;10335217;28;20106;-76
2022/11/28 06:58:45;;;;;;;17.20;15.70;;;;;;;2.93;94.22;99960.50;10334626;28;20046;-75
2022/11/28 07:03:47;;;;;;;16.30;14.82;;;;;;;3.07;93.19;99962.22;10336326;28;20069;-75
2022/11/28 07:08:50;;;;;;;17.42;15.80;;;;;;;3.06;92.85;99958.75;10367081;23;20041;-70
2022/11/28 07:13:53;;;;;;;16.63;14.93;;;;;;;2.96;93.74;99946.63;10374682;28;20038;-71
2022/11/28 07:18:55;;;;;;;17.90;14.70;;;;;;;3.11;93.17;99943.16;10357019;28;20038;-71
2022/11/28 07:23:58;;;;;;;16.92;15.23;;;;;;;3.21;92.07;99927.53;10374065;28;20108;-71
2022/11/28 07:29:00;;;;;;;16.92;15.25;;;;;;;3.19;92.60;99937.06;10374862;28;20484;-71
2022/11/28 07:34:02;;;;;;;17.65;15.48;;;;;;;3.16;92.52;99931.88;10374342;28;20446;-71
2022/11/28 07:39:07;;;;;;;16.92;15.20;;;;;;;3.14;92.08;99927.53;10373259;28;20065;-71
2022/11/28 07:44:10;;;;;;;16.23;14.63;;;;;;;3.24;91.96;99921.47;10374286;28;20050;-71
2022/11/28 07:49:13;;;;;;;16.92;15.48;;;;;;;3.35;92.11;99924.88;10373424;28;20117;-71
2022/11/28 07:54:14;;;;;;;16.00;14.63;;;;;;;3.42;90.62;99903.19;10373115;28;20507;-70
2022/11/28 07:59:16;;;;;;;14.38;13.15;;;;;;;3.44;90.32;99903.19;10373157;28;20100;-70
2022/11/28 08:04:18;;;;;;;15.98;13.90;;;;;;;3.38;89.56;99911.88;10371282;28;20046;-71
2022/11/28 08:09:20;;;;;;;13.80;12.60;;;;;;;3.52;89.02;99923.06;10373892;28;20053;-71
2022/11/28 08:14:22;;;;;;;13.77;12.20;;;;;;;3.56;87.63;99910.91;10379924;28;20054;-70
2022/11/28 08:19:24;;;;;;;14.82;12.48;;;;;;;3.52;89.03;99907.47;10379554;28;20042;-71
2022/11/28 08:24:28;;;;;;;13.77;12.40;;;;;;;3.71;88.12;99903.03;10380069;28;20124;-70
2022/11/28 08:29:30;;;;;;;13.02;11.77;;;;;;;3.88;85.86;99891.66;10380264;28;20104;-70
2022/11/28 08:34:32;;;;;;;13.02;11.93;;;;;;;3.80;86.70;99905.56;10380624;28;20096;-71
2022/11/28 08:39:33;;;;;;;12.68;11.57;;;;;;;3.88;84.88;99902.91;10378353;28;20144;-70
2022/11/28 08:44:35;;;;;;;12.90;11.70;;;;;;;3.67;86.97;99900.44;10378760;28;20050;-71
2022/11/28 08:49:38;;;;;;;12.88;11.77;;;;;;;3.99;84.54;99895.94;10378929;28;20056;-70
2022/11/28 08:54:40;;;;;;;13.15;11.90;;;;;;;3.82;84.96;99912.50;10378703;28;20085;-70
2022/11/28 08:59:42;;;;;;;13.55;12.25;;;;;;;3.97;83.14;99908.06;10380317;28;20481;-70
2022/11/28 09:04:44;;;;;;;12.85;11.23;;;;;;;3.96;83.02;99911.53;10381095;28;20089;-70
2022/11/28 09:09:46;;;;;;;13.15;11.95;;;;;;;4.01;83.63;99916.72;10378031;28;20058;-70
2022/11/28 09:14:48;;;;;;;12.13;11.02;;;;;;;4.03;82.14;99915.84;10378025;28;20050;-70
2022/11/28 09:19:49;;;;;;;13.55;12.25;;;;;;;3.97;83.75;99907.19;10378442;28;20443;-70
2022/11/28 09:24:51;;;;;;;12.65;10.00;;;;;;;4.14;80.89;99913.16;10379573;28;20124;-70
2022/11/28 09:29:53;;;;;;;13.38;11.77;;;;;;;4.06;81.66;99904.53;10377591;28;20046;-70
2022/11/28 09:34:54;;;;;;;13.77;12.38;;;;;;;4.14;81.17;99897.53;10377392;28;20447;-70
2022/11/28 09:39:56;;;;;;;14.02;12.63;;;;;;;4.17;82.46;99888.84;10378162;28;20415;-70
2022/11/28 09:45:18;;;;;;;14.25;12.88;;;;;;;4.20;83.03;99891.41;10377723;28;20129;-70
2022/11/28 09:50:26;;;;;;;14.98;12.63;;;;;;;4.26;82.10;99887.03;10376781;28;20488;-70
2022/11/28 09:55:39;;;;;;;16.65;13.20;;;;;;;4.27;82.32;99887.91;10376836;28;20065;-70
2022/11/28 10:00:52;;;;;;;15.15;13.82;;;;;;;4.18;82.59;99881.03;10377526;28;20048;-71
2022/11/28 10:06:20;;;;;;;16.88;15.10;;;;;;;4.14;83.49;99879.31;10377225;28;20060;-70
2022/11/28 10:11:31;;;;;;;16.13;14.43;;;;;;;4.22;83.64;99863.66;10375943;28;20061;-70
2022/11/28 10:16:59;;;;;;;16.73;14.65;;;;;;;4.27;83.67;99867.06;10376364;28;20450;-71
2022/11/28 10:22:06;;;;;;;16.77;15.27;;;;;;;4.37;83.48;99862.66;10375665;28;20081;-71
2022/11/28 10:27:12;;;;;;;16.43;15.03;;;;;;;4.37;83.15;99866.09;10374563;28;20046;-70
2022/11/28 10:32:18;;;;;;;17.90;16.23;;;;;;;4.27;83.45;99859.28;10374470;28;20289;-70
2022/11/28 10:37:25;;;;;;;17.63;15.93;;;;;;;4.38;83.17;99867.81;10375266;28;20046;-71
2022/11/28 10:42:49;;;;;;;17.55;15.95;;;;;;;4.45;83.01;99863.44;10375514;28;20329;-70
2022/11/28 10:48:09;;;;;;;18.50;16.73;;;;;;;4.58;79.55;99859.84;10376067;28;20038;-70
2022/11/28 10:54:21;;;;;;;16.77;15.38;;;;;;;4.65;81.70;99860.63;10376557;28;20050;-71
2022/11/28 10:59:50;;;;;;;18.10;16.40;;;;;;;4.80;80.05;99863.06;10320515;28;20153;-71
2022/11/28 11:04:52;;;;;;;17.95;16.13;;;;;;;4.75;80.83;99851.84;10355680;28;20100;-70
2022/11/28 11:10:11;;;;;;;18.48;16.95;;;;;;;4.85;79.76;99853.47;10379085;28;20037;-73
2022/11/28 11:15:31;;;;;;;17.65;15.98;;;;;;;4.92;80.10;99842.13;10417056;28;20045;-71
2022/11/28 11:20:37;;;;;;;19.17;17.38;;;;;;;4.90;79.84;99838.66;10414939;28;20050;-71
2022/11/28 11:25:59;;;;;;;20.13;18.00;;;;;;;4.92;79.83;99838.66;10414989;28;20045;-71
2022/11/28 11:31:04;;;;;;;18.13;16.33;;;;;;;5.02;79.14;99837.66;10415046;28;20041;-70
2022/11/28 11:36:20;;;;;;;18.60;16.92;;;;;;;5.06;78.24;99832.38;10398345;28;20509;-70
2022/11/28 11:41:29;;;;;;;18.25;16.38;;;;;;;5.12;78.37;99841.00;10379453;28;20050;-70
2022/11/28 11:46:31;;;;;;;18.88;17.25;;;;;;;5.06;79.83;99855.81;10359906;28;20132;-71
2022/11/28 11:51:34;;;;;;;19.02;17.23;;;;;;;5.19;77.02;99847.84;10381618;28;20077;-71
2022/11/28 11:56:44;;;;;;;19.58;17.63;;;;;;;5.04;79.82;99839.34;10382672;28;20476;-71
2022/11/28 12:01:50;;;;;;;18.13;16.53;;;;;;;5.12;79.00;99848.81;10381967;28;20590;-71
2022/11/28 12:06:55;;;;;;;18.92;17.02;;;;;;;5.19;78.17;99853.94;10380484;28;20046;-71
2022/11/28 12:12:22;;;;;;;19.15;17.45;;;;;;;5.14;79.18;99854.88;10379191;28;20496;-71
2022/11/28 12:17:41;;;;;;;18.65;16.30;;;;;;;5.23;78.87;99850.41;10377984;28;20049;-71
2022/11/28 12:23:09;;;;;;;17.27;15.75;;;;;;;5.27;79.48;99840.81;10381108;28;20492;-71
2022/11/28 12:28:17;;;;;;;18.10;16.60;;;;;;;5.43;77.49;99837.09;10379126;28;20043;-71
2022/11/28 12:33:25;;;;;;;18.70;17.10;;;;;;;5.27;78.31;99836.47;10380367;28;20050;-70
2022/11/28 12:38:48;;;;;;;20.13;18.30;;;;;;;5.27;78.51;99839.06;10378392;28;20148;-71
2022/11/28 12:44:08;;;;;;;18.85;16.95;;;;;;;5.11;79.38;99840.13;10381507;28;20076;-73
2022/11/28 12:49:17;;;;;;;21.13;17.77;;;;;;;5.36;77.80;99835.47;10382453;28;20503;-73
2022/11/28 12:54:37;;;;;;;18.65;17.05;;;;;;;5.13;78.53;99829.69;10381611;28;20480;-73
2022/11/28 12:59:48;;;;;;;17.60;16.02;;;;;;;5.30;77.81;99835.53;10379654;28;20057;-72
2022/11/28 13:05:18;;;;;;;18.55;16.83;;;;;;;5.18;78.55;99827.88;10381960;28;20088;-72
2022/11/28 13:10:54;;;;;;;18.27;16.50;;;;;;;5.16;78.17;99819.22;10392467;23;20049;-71
2022/11/28 13:16:18;;;;;;;18.00;16.40;;;;;;;5.23;78.60;99826.94;10380762;28;20044;-70
2022/11/28 13:21:41;;;;;;;20.88;18.90;;;;;;;5.17;78.53;99824.41;10339530;28;20050;-71
2022/11/28 13:27:00;;;;;;;20.63;18.63;;;;;;;5.28;77.72;99822.53;10340730;28;20042;-71
2022/11/28 13:32:26;;;;;;;20.88;19.02;;;;;;;5.21;77.08;99822.63;10341079;28;20042;-71
2022/11/28 13:37:50;;;;;;;21.50;19.23;;;;;;;4.97;79.48;99818.63;10374238;28;20530;-72
2022/11/28 13:43:24;;;;;;;20.65;18.67;;;;;;;4.87;78.90;99816.97;10380339;28;20100;-71
2022/11/28 13:48:40;;;;;;;20.45;18.42;;;;;;;4.96;78.42;99819.50;10379120;28;20042;-70
2022/11/28 13:54:18;;;;;;;19.55;17.63;;;;;;;4.84;79.29;99812.69;10379808;28;20156;-70
2022/11/28 13:59:22;;;;;;;21.02;19.10;;;;;;;4.93;79.08;99815.19;10379537;28;20042;-70
2022/11/28 14:04:28;;;;;;;20.35;18.55;;;;;;;4.66;80.78;99815.50;10379509;28;20049;-71
2022/11/28 14:09:49;;;;;;;19.80;18.13;;;;;;;4.66;80.22;99816.38;10378962;28;20049;-71
2022/11/28 14:15:34;;;;;;;20.77;18.70;;;;;;;4.81;79.50;99821.38;10380727;28;20040;-71
2022/11/28 14:20:50;;;;;;;22.13;18.00;;;;;;;4.85;79.78;99826.56;10336119;28;20062;-71
2022/11/28 14:25:53;;;;;;;20.30;18.40;;;;;;;4.88;79.68;99821.34;10336352;28;20046;-71
2022/11/28 14:31:09;;;;;;;25.48;18.95;;;;;;;4.53;81.51;99823.44;10318925;28;20108;-71
2022/11/28 14:36:33;;;;;;;22.15;19.83;;;;;;;4.45;82.08;99812.25;10319389;28;20420;-71
2022/11/28 14:42:05;;;;;;;22.83;20.45;;;;;;;4.72;81.52;99815.44;10334796;28;20068;-71
2022/11/28 14:47:30;;;;;;;22.02;19.85;;;;;;;4.62;82.35;99813.81;10317956;28;20057;-71
2022/11/28 14:52:42;;;;;;;22.08;20.17;;;;;;;4.57;81.99;99820.81;10334997;28;20467;-69
2022/11/28 14:57:56;;;;;;;21.58;19.58;;;;;;;4.46;82.66;99823.53;10377850;28;20144;-70
2022/11/28 15:03:07;;;;;;;21.77;19.42;;;;;;;4.47;83.12;99822.63;10380733;28;20480;-71
2022/11/28 15:08:30;;;;;;;19.98;18.13;;;;;;;4.38;82.74;99818.38;10360803;28;20072;-71
2022/11/28 15:13:38;;;;;;;20.80;18.65;;;;;;;4.58;82.46;99822.53;10376678;28;20487;-70
2022/11/28 15:18:49;;;;;;;22.80;20.55;;;;;;;4.50;82.81;99830.41;10377043;28;20053;-71
2022/11/28 15:23:51;;;;;;;21.15;19.15;;;;;;;4.52;82.28;99821.72;10386020;28;20045;-70
2022/11/28 15:29:17;;;;;;;21.77;18.60;;;;;;;4.52;82.05;99813.06;10385794;28;20048;-71
2022/11/28 15:34:25;;;;;;;20.92;18.77;;;;;;;4.52;82.29;99818.28;10385178;28;20100;-71
2022/11/28 15:39:33;;;;;;;22.07;18.53;;;;;;;4.49;82.53;99821.75;10383873;28;20403;-71
2022/11/28 15:44:36;;;;;;;24.77;19.48;;;;;;;4.49;82.55;99821.75;10383271;28;20056;-72
2022/11/28 15:49:41;;;;;;;27.75;20.27;;;;;;;4.54;82.22;99808.69;10385611;28;20504;-70
2022/11/28 15:54:43;;;;;;;26.48;20.92;;;;;;;4.37;83.45;99823.63;10386569;28;20325;-72
2022/11/28 15:59:45;;;;;;;21.90;19.55;;;;;;;4.29;84.26;99828.88;10385190;28;20041;-71
2022/11/28 16:04:52;;;;;;;24.38;20.58;;;;;;;4.28;84.63;99832.38;10365791;28;20586;-71
2022/11/28 16:10:02;;;;;;;26.45;21.42;;;;;;;4.37;84.29;99832.28;10382060;28;20053;-71
2022/11/28 16:15:04;;;;;;;24.52;21.95;;;;;;;4.32;84.05;99828.88;10384368;28;20050;-71
2022/11/28 16:20:19;;;;;;;30.85;21.92;;;;;;;4.46;83.84;99828.72;10383242;28;20041;-71
2022/11/28 16:25:23;;;;;;;26.60;21.00;;;;;;;4.36;84.06;99820.16;10384034;28;20092;-71
2022/11/28 16:30:35;;;;;;;28.98;22.20;;;;;;;4.25;85.27;99814.19;10382906;28;20488;-71
2022/11/28 16:35:40;;;;;;;27.50;23.08;;;;;;;4.35;84.37;99820.19;10384274;28;20072;-69
2022/11/28 16:40:42;;;;;;;34.50;22.83;;;;;;;4.51;83.50;99812.16;10381434;28;20042;-71
2022/11/28 16:45:44;;;;;;;31.15;22.40;;;;;;;4.43;84.10;99807.97;10381588;28;20041;-71
2022/11/28 16:51:01;;;;;;;33.53;21.67;;;;;;;4.23;85.58;99810.75;10379872;28;20042;-71
2022/11/28 16:56:03;;;;;;;;;;;;;;;4.49;84.60;99813.09;10381762;28;20121;-71
2022/11/28 17:01:07;;;;;;;31.58;22.60;;;;;;;4.44;84.80;99820.94;10380042;28;19925;-70
2022/11/28 17:06:26;;;;;;;30.58;22.13;;;;;;;4.33;85.34;99822.78;10380885;28;20045;-71
2022/11/28 17:11:32;;;;;;;24.58;21.90;;;;;;;4.52;84.12;99828.69;10381114;28;20080;-70
2022/11/28 17:16:35;;;;;;;33.67;22.90;;;;;;;4.35;85.68;99821.03;10379814;28;20053;-70
2022/11/28 17:21:45;;;;;;;32.25;24.13;;;;;;;4.26;86.02;99815.94;10379489;28;20407;-71
2022/11/28 17:26:48;;;;;;;37.13;25.73;;;;;;;4.34;85.71;99818.44;10380263;28;20072;-70
2022/11/28 17:31:53;;;;;;;30.52;24.25;;;;;;;4.46;85.51;99816.56;10380938;28;20046;-71
2022/11/28 17:36:56;;;;;;;31.08;24.73;;;;;;;4.45;86.05;99816.59;10379526;28;20072;-71
2022/11/28 17:41:59;;;;;;;33.75;26.00;;;;;;;4.37;85.89;99814.06;10379271;28;20492;-70
2022/11/28 17:47:01;;;;;;;38.17;25.20;;;;;;;4.41;86.55;99820.97;10379738;28;20049;-71
2022/11/28 17:52:03;;;;;;;36.95;25.80;;;;;;;4.43;85.87;99823.56;10381367;28;20045;-71
2022/11/28 17:57:05;;;;;;;29.95;23.58;;;;;;;4.50;85.75;99817.41;10378098;28;20041;-71
2022/11/28 18:02:09;;;;;;;35.33;24.70;;;;;;;4.44;85.96;99817.47;10379627;28;20038;-71
2022/11/28 18:07:12;;;;;;;29.17;24.35;;;;;;;4.51;86.20;99812.16;10379549;28;20503;-71
2022/11/28 18:12:14;;;;;;;32.97;23.52;;;;;;;4.59;85.15;99819.03;10377420;28;20104;-71
2022/11/28 18:17:16;;;;;;;29.48;23.38;;;;;;;4.62;84.83;99814.69;10377140;28;20412;-72
2022/11/28 18:22:18;;;;;;;25.73;23.08;;;;;;;4.61;85.26;99814.72;10378782;28;20096;-71
2022/11/28 18:27:19;;;;;;;27.75;22.40;;;;;;;4.68;85.05;99808.53;10379181;28;20122;-71
2022/11/28 18:32:21;;;;;;;26.80;23.83;;;;;;;4.43;86.24;99815.75;10377754;28;20045;-71
2022/11/28 18:37:23;;;;;;;32.10;24.15;;;;;;;4.37;86.89;99823.63;10377359;28;20046;-70
2022/11/28 18:42:25;;;;;;;39.97;27.70;;;;;;;4.58;86.64;99815.59;10376534;28;20053;-70
2022/11/28 18:47:27;;;;;;;39.15;25.75;;;;;;;4.66;84.90;99812.91;10376360;28;20046;-70
2022/11/28 18:52:29;;;;;;;39.17;27.85;;;;;;;4.65;84.82;99824.19;10377811;28;20046;-70
2022/11/28 18:57:33;;;;;;;40.83;28.02;;;;;;;4.31;87.13;99816.75;10376951;28;20474;-71
2022/11/28 19:02:35;;;;;;;40.88;27.67;;;;;;;4.25;88.87;99799.47;10375676;28;20083;-71
2022/11/28 19:07:38;;;;;;;47.67;29.52;;;;;;;4.51;86.97;99799.16;10377381;28;20042;-71
2022/11/28 19:12:40;;;;;;;48.67;29.92;;;;;;;4.57;87.96;99806.06;10388575;23;20136;-71
2022/11/28 19:17:42;;;;;;;44.53;27.48;;;;;;;4.41;88.47;99805.34;10376215;28;20041;-72
2022/11/28 19:22:44;;;;;;;43.85;29.23;;;;;;;4.53;87.53;99802.63;10384593;28;20050;-72
2022/11/28 19:27:46;;;;;;;43.53;29.42;;;;;;;4.70;86.72;99820.66;10382081;28;20058;-72
2022/11/28 19:32:47;;;;;;;39.50;28.00;;;;;;;4.53;88.00;99820.84;10373551;28;20054;-72
2022/11/28 19:37:49;;;;;;;44.47;29.63;;;;;;;4.31;89.33;99814.13;10376248;28;20048;-72
2022/11/28 19:42:51;;;;;;;42.15;27.77;;;;;;;4.46;88.22;99813.97;10378494;28;20041;-73
2022/11/28 19:47:53;;;;;;;54.53;30.83;;;;;;;4.23;88.89;99813.34;10373747;28;20038;-73
2022/11/28 19:52:54;;;;;;;38.05;28.05;;;;;;;3.94;91.00;99811.00;10374302;28;20096;-73
2022/11/28 19:57:56;;;;;;;51.08;31.40;;;;;;;4.15;91.28;99820.34;10376484;28;20044;-72
2022/11/28 20:02:58;;;;;;;42.42;28.65;;;;;;;3.88;91.59;99818.84;10376237;28;20042;-73
2022/11/28 20:08:00;;;;;;;46.53;31.08;;;;;;;3.60;93.86;99818.22;10380926;28;20050;-72
2022/11/28 20:13:02;;;;;;;55.20;30.42;;;;;;;3.51;94.92;99814.78;10381129;28;20045;-72
2022/11/28 20:18:04;;;;;;;43.10;30.02;;;;;;;3.75;94.53;99825.88;10381394;28;20041;-72
2022/11/28 20:23:06;;;;;;;42.72;28.33;;;;;;;3.55;94.76;99828.63;10379956;28;20046;-72
2022/11/28 20:28:08;;;;;;;44.58;29.65;;;;;;;3.46;96.04;99839.94;10381342;28;20046;-72
2022/11/28 20:33:11;;;;;;;39.35;28.52;;;;;;;3.32;96.56;99833.97;10379919;28;20415;-73
2022/11/28 20:38:13;;;;;;;43.42;28.33;;;;;;;3.35;96.94;99840.88;10380691;28;20403;-72
2022/11/28 20:43:14;;;;;;;36.88;28.42;;;;;;;3.29;97.63;99834.00;10380172;28;20049;-73
2022/11/28 20:48:16;;;;;;;42.03;28.10;;;;;;;3.30;97.77;99846.09;10381373;28;20046;-72
2022/11/28 20:53:18;;;;;;;40.05;26.88;;;;;;;3.48;97.69;99843.38;10379385;28;20088;-72
2022/11/28 20:58:28;;;;;;;32.38;25.48;;;;;;;3.41;98.34;99841.72;10380519;28;20065;-73
2022/11/28 21:03:29;;;;;;;33.78;27.55;;;;;;;3.40;98.54;99842.56;10383081;28;20074;-73
2022/11/28 21:08:32;;;;;;;40.95;28.60;;;;;;;3.60;98.05;99849.41;10383143;28;20046;-72
2022/11/28 21:13:34;;;;;;;42.53;28.48;;;;;;;3.52;98.54;99845.09;10379708;28;20054;-72
2022/11/28 21:18:38;;;;;;;46.25;28.55;;;;;;;3.50;98.61;99844.25;10380069;28;20096;-73
2022/11/28 21:23:41;;;;;;;30.17;26.23;;;;;;;3.59;98.96;99842.47;10381297;28;20046;-72
2022/11/28 21:28:45;;;;;;;36.33;24.92;;;;;;;3.73;96.23;99845.84;10379125;28;20041;-72
2022/11/28 21:33:48;;;;;;;33.47;23.48;;;;;;;3.69;96.48;99849.34;10365663;28;20530;-73
2022/11/28 21:38:51;;;;;;;37.38;25.35;;;;;;;3.83;95.48;99841.44;10379269;28;20050;-72
2022/11/28 21:43:53;;;;;;;36.38;24.48;;;;;;;4.19;93.07;99843.72;10378559;28;20041;-72
2022/11/28 21:48:57;;;;;;;30.83;24.75;;;;;;;4.00;92.89;99840.44;10377570;28;20562;-71
2022/11/28 21:53:59;;;;;;;29.00;23.30;;;;;;;4.19;92.62;99840.25;10379883;28;20076;-73
2022/11/28 21:59:00;;;;;;;27.17;22.35;;;;;;;4.08;92.72;99839.50;10376286;28;20042;-73
2022/11/28 22:04:03;;;;;;;28.73;23.15;;;;;;;3.90;94.40;99841.38;10360323;28;20419;-73
2022/11/28 22:09:05;;;;;;;27.60;23.80;;;;;;;4.15;92.79;99839.41;10376913;28;20048;-72
2022/11/28 22:14:11;;;;;;;30.95;22.48;;;;;;;4.29;91.47;99840.19;10377901;28;20042;-72
2022/11/28 22:19:13;;;;;;;30.25;23.20;;;;;;;4.02;93.47;99843.88;10376597;28;20100;-71
2022/11/28 22:24:16;;;;;;;26.42;22.92;;;;;;;3.98;94.02;99839.56;10375148;28;20121;-74
2022/11/28 22:29:18;;;;;;;25.38;22.77;;;;;;;4.11;93.37;99836.84;10375383;28;20050;-72
2022/11/28 22:34:20;;;;;;;25.05;22.05;;;;;;;4.13;93.02;99842.94;10376233;28;20446;-72
2022/11/28 22:39:21;;;;;;;26.52;22.60;;;;;;;4.03;93.44;99850.81;10378661;28;20046;-71
2022/11/28 22:44:23;;;;;;;26.00;20.83;;;;;;;4.08;93.11;99848.16;10376451;28;20049;-71
2022/11/28 22:49:25;;;;;;;24.92;22.20;;;;;;;4.01;93.91;99851.69;10357870;28;20041;-71
2022/11/28 22:54:27;;;;;;;22.55;20.27;;;;;;;4.07;93.01;99848.16;10375630;28;20041;-71
2022/11/28 22:59:32;;;;;;;21.38;19.33;;;;;;;4.21;92.20;99852.38;10377239;28;20030;-71
2022/11/28 23:04:34;;;;;;;23.73;21.13;;;;;;;4.24;91.32;99848.88;10375517;28;20049;-71
2022/11/28 23:09:36;;;;;;;22.23;20.10;;;;;;;4.13;92.27;99846.38;10376582;28;20515;-71
2022/11/28 23:14:40;;;;;;;24.30;22.00;;;;;;;3.99;93.41;99849.09;10375983;28;20479;-71
2022/11/28 23:19:42;;;;;;;24.83;21.17;;;;;;;4.03;93.06;99848.22;10375990;28;20042;-71
2022/11/28 23:24:43;;;;;;;27.83;22.55;;;;;;;3.99;94.16;99856.91;10373527;28;20077;-71
2022/11/28 23:29:45;;;;;;;23.70;21.33;;;;;;;3.90;93.51;99856.97;10374719;28;20132;-72